sensor_id;sensor_type;location;lat;lon;timestamp;pressure;altitude;pressure_sealevel;temperature;humidity
804;BME280;25687;49.976;8.240;2022-08-03T00:02:24;100077.78;;;19.41;72.51
804;BME280;25687;49.976;8.240;2022-08-03T00:04:49;100075.41;;;19.48;72.90
804;BME280;25687;49.976;8.240;2022-08-03T00:07:15;100075.81;;;19.53;72.76
804;BME280;25687;49.976;8.240;2022-08-03T00:09:40;100074.13;;;19.62;72.31
804;BME280;25687;49.976;8.240;2022-08-03T00:12:06;100070.56;;;19.63;72.24
804;BME280;25687;49.976;8.240;2022-08-03T00:14:31;100070.78;;;19.70;72.09
804;BME280;25687;49.976;8.240;2022-08-03T00:16:57;100070.56;;;19.63;72.57
804;BME280;25687;49.976;8.240;2022-08-03T00:19:22;100071.50;;;19.62;72.36
804;BME280;25687;49.976;8.240;2022-08-03T00:21:47;100070.59;;;19.53;73.42
804;BME280;25687;49.976;8.240;2022-08-03T00:24:13;100076.38;;;19.47;74.55
804;BME280;25687;49.976;8.240;2022-08-03T00:26:38;100072.13;;;19.36;76.18
804;BME280;25687;49.976;8.240;2022-08-03T00:29:03;100069.53;;;19.36;76.18
804;BME280;25687;49.976;8.240;2022-08-03T00:31:29;100077.91;;;19.30;77.01
804;BME280;25687;49.976;8.240;2022-08-03T00:33:54;100069.81;;;19.33;76.91
804;BME280;25687;49.976;8.240;2022-08-03T00:36:19;100068.31;;;19.40;76.39
804;BME280;25687;49.976;8.240;2022-08-03T00:38:45;100066.91;;;19.36;76.05
804;BME280;25687;49.976;8.240;2022-08-03T00:41:10;100075.03;;;19.33;76.60
804;BME280;25687;49.976;8.240;2022-08-03T00:43:35;100064.75;;;19.31;76.95
804;BME280;25687;49.976;8.240;2022-08-03T00:46:00;100069.16;;;19.11;79.35
804;BME280;25687;49.976;8.240;2022-08-03T00:48:26;100066.53;;;19.21;78.90
804;BME280;25687;49.976;8.240;2022-08-03T00:50:51;100071.50;;;19.24;78.00
804;BME280;25687;49.976;8.240;2022-08-03T00:53:17;100060.38;;;19.22;78.84
804;BME280;25687;49.976;8.240;2022-08-03T00:55:43;100067.09;;;19.25;78.18
804;BME280;25687;49.976;8.240;2022-08-03T00:58:09;100061.22;;;19.23;78.96
804;BME280;25687;49.976;8.240;2022-08-03T01:00:37;100067.25;;;19.13;78.89
804;BME280;25687;49.976;8.240;2022-08-03T01:03:03;100065.59;;;19.12;78.70
804;BME280;25687;49.976;8.240;2022-08-03T01:05:32;100071.25;;;19.08;78.94
804;BME280;25687;49.976;8.240;2022-08-03T01:08:07;100070.41;;;19.07;79.03
804;BME280;25687;49.976;8.240;2022-08-03T01:11:01;100062.59;;;18.87;78.81
804;BME280;25687;49.976;8.240;2022-08-03T01:16:16;100067.41;;;18.82;78.80
804;BME280;25687;49.976;8.240;2022-08-03T01:18:57;100061.22;;;18.64;78.58
804;BME280;25687;49.976;8.240;2022-08-03T01:21:27;100061.94;;;18.66;78.63
804;BME280;25687;49.976;8.240;2022-08-03T01:27:13;100060.56;;;18.42;79.94
804;BME280;25687;49.976;8.240;2022-08-03T01:29:51;100058.75;;;18.43;80.11
804;BME280;25687;49.976;8.240;2022-08-03T01:35:49;100061.09;;;18.36;80.11
804;BME280;25687;49.976;8.240;2022-08-03T01:38:22;100059.28;;;18.36;80.71
804;BME280;25687;49.976;8.240;2022-08-03T01:40:49;100057.25;;;18.40;81.60
804;BME280;25687;49.976;8.240;2022-08-03T01:43:18;100060.56;;;18.42;80.45
804;BME280;25687;49.976;8.240;2022-08-03T01:45:46;100049.97;;;18.34;81.25
804;BME280;25687;49.976;8.240;2022-08-03T01:48:15;100052.81;;;18.11;83.23
804;BME280;25687;49.976;8.240;2022-08-03T01:50:42;100044.47;;;18.17;83.23
804;BME280;25687;49.976;8.240;2022-08-03T01:53:13;100043.78;;;18.25;82.23
804;BME280;25687;49.976;8.240;2022-08-03T01:55:39;100047.13;;;18.37;80.92
804;BME280;25687;49.976;8.240;2022-08-03T01:58:07;100042.88;;;18.36;81.21
804;BME280;25687;49.976;8.240;2022-08-03T02:00:36;100050.53;;;18.37;81.21
804;BME280;25687;49.976;8.240;2022-08-03T02:03:06;100050.66;;;18.36;80.92
804;BME280;25687;49.976;8.240;2022-08-03T02:05:33;100046.56;;;18.33;81.86
804;BME280;25687;49.976;8.240;2022-08-03T02:08:02;100047.78;;;18.29;82.32
804;BME280;25687;49.976;8.240;2022-08-03T02:10:29;100045.56;;;18.34;82.47
804;BME280;25687;49.976;8.240;2022-08-03T02:13:00;100047.38;;;18.34;82.70
804;BME280;25687;49.976;8.240;2022-08-03T02:15:27;100048.72;;;18.28;82.82
804;BME280;25687;49.976;8.240;2022-08-03T02:17:55;100060.50;;;18.22;83.86
804;BME280;25687;49.976;8.240;2022-08-03T02:20:22;100055.69;;;18.18;85.00
804;BME280;25687;49.976;8.240;2022-08-03T02:22:48;100055.44;;;18.21;85.05
804;BME280;25687;49.976;8.240;2022-08-03T02:25:14;100052.69;;;18.13;86.00
804;BME280;25687;49.976;8.240;2022-08-03T02:27:49;100045.28;;;18.08;86.09
804;BME280;25687;49.976;8.240;2022-08-03T02:30:15;100053.38;;;18.15;85.95
804;BME280;25687;49.976;8.240;2022-08-03T02:32:47;100047.34;;;18.14;85.44
804;BME280;25687;49.976;8.240;2022-08-03T02:35:16;100050.25;;;18.21;85.31
804;BME280;25687;49.976;8.240;2022-08-03T02:37:46;100050.50;;;18.18;86.85
804;BME280;25687;49.976;8.240;2022-08-03T02:40:13;100050.63;;;18.16;86.32
804;BME280;25687;49.976;8.240;2022-08-03T02:42:40;100050.06;;;18.13;85.96
804;BME280;25687;49.976;8.240;2022-08-03T02:45:08;100052.41;;;18.06;85.43
804;BME280;25687;49.976;8.240;2022-08-03T02:47:38;100051.97;;;18.01;86.36
804;BME280;25687;49.976;8.240;2022-08-03T02:50:07;100047.84;;;17.98;85.36
804;BME280;25687;49.976;8.240;2022-08-03T02:52:34;100050.28;;;17.90;86.48
804;BME280;25687;49.976;8.240;2022-08-03T02:55:02;100050.66;;;17.85;86.84
804;BME280;25687;49.976;8.240;2022-08-03T02:57:30;100042.84;;;17.85;86.34
804;BME280;25687;49.976;8.240;2022-08-03T02:59:59;100044.50;;;17.86;85.77
804;BME280;25687;49.976;8.240;2022-08-03T03:02:27;100049.28;;;17.81;85.98
804;BME280;25687;49.976;8.240;2022-08-03T03:04:54;100036.09;;;17.73;87.00
804;BME280;25687;49.976;8.240;2022-08-03T03:07:20;100037.19;;;17.70;87.33
804;BME280;25687;49.976;8.240;2022-08-03T03:09:47;100032.94;;;17.69;88.15
804;BME280;25687;49.976;8.240;2022-08-03T03:12:13;100038.00;;;17.71;88.29
804;BME280;25687;49.976;8.240;2022-08-03T03:14:40;100038.81;;;17.62;89.05
804;BME280;25687;49.976;8.240;2022-08-03T03:17:06;100038.50;;;17.55;89.42
804;BME280;25687;49.976;8.240;2022-08-03T03:19:33;100037.53;;;17.56;89.94
804;BME280;25687;49.976;8.240;2022-08-03T03:22:00;100037.50;;;17.46;91.98
804;BME280;25687;49.976;8.240;2022-08-03T03:24:29;100039.41;;;17.44;93.30
804;BME280;25687;49.976;8.240;2022-08-03T03:26:55;100031.78;;;17.52;93.00
804;BME280;25687;49.976;8.240;2022-08-03T03:29:21;100037.84;;;17.63;92.34
804;BME280;25687;49.976;8.240;2022-08-03T03:31:48;100032.75;;;17.61;92.05
804;BME280;25687;49.976;8.240;2022-08-03T03:34:14;100037.91;;;17.41;94.12
804;BME280;25687;49.976;8.240;2022-08-03T03:36:39;100037.69;;;17.54;94.22
804;BME280;25687;49.976;8.240;2022-08-03T03:39:05;100041.44;;;17.71;93.23
804;BME280;25687;49.976;8.240;2022-08-03T03:41:31;100042.28;;;17.82;92.68
804;BME280;25687;49.976;8.240;2022-08-03T03:43:57;100039.00;;;17.80;92.47
804;BME280;25687;49.976;8.240;2022-08-03T03:46:23;100047.22;;;17.75;93.08
804;BME280;25687;49.976;8.240;2022-08-03T03:48:49;100037.34;;;17.69;93.96
804;BME280;25687;49.976;8.240;2022-08-03T03:51:14;100038.59;;;17.84;93.03
804;BME280;25687;49.976;8.240;2022-08-03T03:53:53;100043.88;;;17.94;92.33
804;BME280;25687;49.976;8.240;2022-08-03T03:56:19;100045.66;;;18.03;91.85
804;BME280;25687;49.976;8.240;2022-08-03T03:58:44;100053.06;;;17.98;91.96
804;BME280;25687;49.976;8.240;2022-08-03T04:01:11;100049.81;;;17.85;89.30
804;BME280;25687;49.976;8.240;2022-08-03T04:03:37;100049.94;;;17.73;87.92
804;BME280;25687;49.976;8.240;2022-08-03T04:06:02;100044.34;;;17.78;87.59
804;BME280;25687;49.976;8.240;2022-08-03T04:08:46;100045.31;;;17.87;87.23
804;BME280;25687;49.976;8.240;2022-08-03T04:11:29;100042.00;;;17.85;87.28
804;BME280;25687;49.976;8.240;2022-08-03T04:14:40;100044.94;;;17.91;86.82
804;BME280;25687;49.976;8.240;2022-08-03T04:16:53;100041.91;;;17.86;87.91
804;BME280;25687;49.976;8.240;2022-08-03T04:19:32;100042.00;;;17.85;87.67
804;BME280;25687;49.976;8.240;2022-08-03T04:22:02;100039.66;;;18.03;86.30
804;BME280;25687;49.976;8.240;2022-08-03T04:24:37;100044.28;;;17.99;86.91
804;BME280;25687;49.976;8.240;2022-08-03T04:27:06;100042.94;;;18.05;87.02
804;BME280;25687;49.976;8.240;2022-08-03T04:29:34;100048.69;;;17.99;87.69
804;BME280;25687;49.976;8.240;2022-08-03T04:32:04;100048.00;;;18.06;87.55
804;BME280;25687;49.976;8.240;2022-08-03T04:34:31;100042.38;;;18.01;87.69
804;BME280;25687;49.976;8.240;2022-08-03T04:36:58;100042.53;;;18.10;87.16
804;BME280;25687;49.976;8.240;2022-08-03T04:39:26;100045.56;;;18.15;87.18
804;BME280;25687;49.976;8.240;2022-08-03T04:41:57;100051.19;;;18.20;86.86
804;BME280;25687;49.976;8.240;2022-08-03T04:44:23;100056.00;;;18.25;87.87
804;BME280;25687;49.976;8.240;2022-08-03T04:46:50;100059.56;;;18.23;87.74
804;BME280;25687;49.976;8.240;2022-08-03T04:49:17;100068.34;;;18.32;87.06
804;BME280;25687;49.976;8.240;2022-08-03T04:51:44;100063.56;;;18.37;87.34
804;BME280;25687;49.976;8.240;2022-08-03T04:54:14;100066.72;;;18.51;86.53
804;BME280;25687;49.976;8.240;2022-08-03T04:56:43;100069.59;;;18.58;85.46
804;BME280;25687;49.976;8.240;2022-08-03T04:59:09;100075.75;;;18.47;85.76
804;BME280;25687;49.976;8.240;2022-08-03T05:01:35;100071.41;;;18.77;83.78
804;BME280;25687;49.976;8.240;2022-08-03T05:04:01;100071.69;;;18.93;82.54
804;BME280;25687;49.976;8.240;2022-08-03T05:06:26;100073.88;;;18.98;83.15
804;BME280;25687;49.976;8.240;2022-08-03T05:08:52;100068.75;;;18.86;83.68
804;BME280;25687;49.976;8.240;2022-08-03T05:11:18;100074.28;;;18.93;83.90
804;BME280;25687;49.976;8.240;2022-08-03T05:13:44;100071.66;;;19.13;82.72
804;BME280;25687;49.976;8.240;2022-08-03T05:16:10;100070.09;;;19.30;80.44
804;BME280;25687;49.976;8.240;2022-08-03T05:18:36;100075.81;;;19.43;79.20
804;BME280;25687;49.976;8.240;2022-08-03T05:21:01;100075.22;;;19.22;80.36
804;BME280;25687;49.976;8.240;2022-08-03T05:23:27;100076.94;;;19.41;78.71
804;BME280;25687;49.976;8.240;2022-08-03T05:25:52;100074.44;;;19.49;79.55
804;BME280;25687;49.976;8.240;2022-08-03T05:28:17;100075.81;;;19.53;78.86
804;BME280;25687;49.976;8.240;2022-08-03T05:30:43;100073.69;;;19.66;78.78
804;BME280;25687;49.976;8.240;2022-08-03T05:33:09;100086.03;;;19.74;77.23
804;BME280;25687;49.976;8.240;2022-08-03T05:35:35;100087.25;;;19.80;75.46
804;BME280;25687;49.976;8.240;2022-08-03T05:38:03;100085.75;;;19.87;75.21
804;BME280;25687;49.976;8.240;2022-08-03T05:40:30;100086.50;;;19.97;73.54
804;BME280;25687;49.976;8.240;2022-08-03T05:42:55;100086.72;;;20.04;74.14
804;BME280;25687;49.976;8.240;2022-08-03T05:45:21;100089.28;;;20.14;73.39
804;BME280;25687;49.976;8.240;2022-08-03T05:47:46;100089.78;;;20.27;72.67
804;BME280;25687;49.976;8.240;2022-08-03T05:50:12;100088.13;;;20.26;72.72
804;BME280;25687;49.976;8.240;2022-08-03T05:52:39;100089.94;;;20.44;71.84
804;BME280;25687;49.976;8.240;2022-08-03T05:55:06;100092.56;;;20.62;71.00
804;BME280;25687;49.976;8.240;2022-08-03T05:57:32;100091.41;;;20.74;70.11
804;BME280;25687;49.976;8.240;2022-08-03T05:59:57;100096.59;;;20.92;68.78
804;BME280;25687;49.976;8.240;2022-08-03T06:02:23;100089.94;;;20.98;66.52
804;BME280;25687;49.976;8.240;2022-08-03T06:04:48;100089.94;;;20.98;67.96
804;BME280;25687;49.976;8.240;2022-08-03T06:07:14;100099.19;;;21.10;67.05
804;BME280;25687;49.976;8.240;2022-08-03T06:09:39;100089.59;;;21.19;66.98
804;BME280;25687;49.976;8.240;2022-08-03T06:12:06;100101.16;;;21.35;66.07
804;BME280;25687;49.976;8.240;2022-08-03T06:14:31;100096.75;;;21.62;64.69
804;BME280;25687;49.976;8.240;2022-08-03T06:16:57;100089.06;;;21.60;63.75
804;BME280;25687;49.976;8.240;2022-08-03T06:19:22;100089.13;;;21.76;62.44
804;BME280;25687;49.976;8.240;2022-08-03T06:21:48;100083.66;;;21.62;62.63
804;BME280;25687;49.976;8.240;2022-08-03T06:24:14;100090.31;;;21.82;62.80
804;BME280;25687;49.976;8.240;2022-08-03T06:26:40;100087.28;;;22.03;60.70
804;BME280;25687;49.976;8.240;2022-08-03T06:29:06;100089.78;;;22.13;61.18
804;BME280;25687;49.976;8.240;2022-08-03T06:31:31;100094.16;;;22.13;60.63
804;BME280;25687;49.976;8.240;2022-08-03T06:33:57;100092.31;;;22.39;57.79
804;BME280;25687;49.976;8.240;2022-08-03T06:36:22;100092.50;;;22.54;57.07
804;BME280;25687;49.976;8.240;2022-08-03T06:38:47;100097.94;;;22.78;57.71
804;BME280;25687;49.976;8.240;2022-08-03T06:41:13;100090.06;;;23.19;55.54
804;BME280;25687;49.976;8.240;2022-08-03T06:43:39;100095.31;;;23.27;55.13
804;BME280;25687;49.976;8.240;2022-08-03T06:46:04;100091.84;;;24.23;50.88
804;BME280;25687;49.976;8.240;2022-08-03T06:48:31;100087.94;;;25.56;46.46
804;BME280;25687;49.976;8.240;2022-08-03T06:50:56;100096.75;;;26.73;43.01
804;BME280;25687;49.976;8.240;2022-08-03T06:53:21;100102.19;;;28.81;38.79
804;BME280;25687;49.976;8.240;2022-08-03T06:55:47;100096.47;;;30.29;35.72
804;BME280;25687;49.976;8.240;2022-08-03T06:58:12;100108.44;;;31.58;32.80
804;BME280;25687;49.976;8.240;2022-08-03T07:00:38;100101.53;;;32.60;30.33
804;BME280;25687;49.976;8.240;2022-08-03T07:03:03;100105.63;;;33.86;28.41
804;BME280;25687;49.976;8.240;2022-08-03T07:05:29;100109.63;;;34.81;26.71
804;BME280;25687;49.976;8.240;2022-08-03T07:07:57;100117.53;;;35.10;26.54
804;BME280;25687;49.976;8.240;2022-08-03T07:10:23;100114.97;;;34.98;25.92
804;BME280;25687;49.976;8.240;2022-08-03T07:12:48;100106.84;;;34.24;27.09
804;BME280;25687;49.976;8.240;2022-08-03T07:15:14;100116.53;;;35.33;25.88
804;BME280;25687;49.976;8.240;2022-08-03T07:17:39;100122.81;;;35.66;25.44
804;BME280;25687;49.976;8.240;2022-08-03T07:20:06;100115.88;;;35.26;25.95
804;BME280;25687;49.976;8.240;2022-08-03T07:22:34;100122.31;;;35.91;24.41
804;BME280;25687;49.976;8.240;2022-08-03T07:25:00;100125.72;;;35.64;24.88
804;BME280;25687;49.976;8.240;2022-08-03T07:27:27;100126.97;;;35.34;25.42
804;BME280;25687;49.976;8.240;2022-08-03T07:29:54;100123.03;;;35.20;25.57
804;BME280;25687;49.976;8.240;2022-08-03T07:32:19;100126.47;;;35.60;25.00
804;BME280;25687;49.976;8.240;2022-08-03T07:34:44;100126.81;;;35.02;25.81
804;BME280;25687;49.976;8.240;2022-08-03T07:37:10;100129.78;;;36.16;23.94
804;BME280;25687;49.976;8.240;2022-08-03T07:39:35;100136.94;;;37.67;23.29
804;BME280;25687;49.976;8.240;2022-08-03T07:42:01;100137.78;;;37.19;23.41
804;BME280;25687;49.976;8.240;2022-08-03T07:44:26;100138.31;;;37.21;22.78
804;BME280;25687;49.976;8.240;2022-08-03T07:46:51;100128.09;;;36.75;23.10
804;BME280;25687;49.976;8.240;2022-08-03T07:49:17;100131.31;;;36.72;22.81
804;BME280;25687;49.976;8.240;2022-08-03T07:51:43;100126.75;;;36.73;23.09
804;BME280;25687;49.976;8.240;2022-08-03T07:54:08;100123.22;;;36.62;22.98
804;BME280;25687;49.976;8.240;2022-08-03T07:56:35;100120.97;;;36.86;23.43
804;BME280;25687;49.976;8.240;2022-08-03T07:59:00;100129.56;;;38.31;22.28
804;BME280;25687;49.976;8.240;2022-08-03T08:01:27;100131.75;;;40.01;20.00
804;BME280;25687;49.976;8.240;2022-08-03T08:03:52;100137.22;;;40.25;18.84
804;BME280;25687;49.976;8.240;2022-08-03T08:06:18;100143.09;;;40.32;18.95
804;BME280;25687;49.976;8.240;2022-08-03T08:08:44;100137.75;;;40.27;19.37
804;BME280;25687;49.976;8.240;2022-08-03T08:11:09;100122.31;;;38.57;21.06
804;BME280;25687;49.976;8.240;2022-08-03T08:13:34;100121.19;;;38.89;20.37
804;BME280;25687;49.976;8.240;2022-08-03T08:16:02;100122.81;;;38.59;20.16
804;BME280;25687;49.976;8.240;2022-08-03T08:18:27;100113.72;;;38.76;20.47
804;BME280;25687;49.976;8.240;2022-08-03T08:20:53;100114.97;;;39.04;20.83
804;BME280;25687;49.976;8.240;2022-08-03T08:23:19;100118.25;;;36.43;23.18
804;BME280;25687;49.976;8.240;2022-08-03T08:25:48;100117.69;;;37.95;21.50
804;BME280;25687;49.976;8.240;2022-08-03T08:28:16;100113.66;;;37.93;20.97
804;BME280;25687;49.976;8.240;2022-08-03T08:30:41;100107.41;;;39.06;19.96
804;BME280;25687;49.976;8.240;2022-08-03T08:33:07;100117.47;;;41.18;18.66
804;BME280;25687;49.976;8.240;2022-08-03T08:35:32;100116.72;;;39.95;19.17
804;BME280;25687;49.976;8.240;2022-08-03T08:37:59;100113.00;;;42.09;18.15
804;BME280;25687;49.976;8.240;2022-08-03T08:40:26;100119.19;;;43.68;15.88
804;BME280;25687;49.976;8.240;2022-08-03T08:42:51;100119.25;;;42.98;16.53
804;BME280;25687;49.976;8.240;2022-08-03T08:45:17;100117.88;;;42.87;16.47
804;BME280;25687;49.976;8.240;2022-08-03T08:47:45;100119.38;;;43.07;16.67
804;BME280;25687;49.976;8.240;2022-08-03T08:50:11;100114.69;;;41.67;17.44
804;BME280;25687;49.976;8.240;2022-08-03T08:52:39;100111.13;;;42.56;16.75
804;BME280;25687;49.976;8.240;2022-08-03T08:55:09;100116.53;;;42.56;16.21
804;BME280;25687;49.976;8.240;2022-08-03T08:57:37;100108.41;;;42.09;17.37
804;BME280;25687;49.976;8.240;2022-08-03T09:00:08;100101.94;;;43.27;16.22
804;BME280;25687;49.976;8.240;2022-08-03T09:02:35;100105.28;;;41.64;16.52
804;BME280;25687;49.976;8.240;2022-08-03T09:05:01;100099.63;;;40.44;17.83
804;BME280;25687;49.976;8.240;2022-08-03T09:07:27;100095.25;;;39.84;18.66
804;BME280;25687;49.976;8.240;2022-08-03T09:09:53;100098.25;;;40.17;18.17
804;BME280;25687;49.976;8.240;2022-08-03T09:12:18;100100.19;;;41.43;17.23
804;BME280;25687;49.976;8.240;2022-08-03T09:14:44;100100.84;;;42.86;15.88
804;BME280;25687;49.976;8.240;2022-08-03T09:17:09;100109.97;;;43.18;15.56
804;BME280;25687;49.976;8.240;2022-08-03T09:19:35;100106.56;;;43.13;15.35
804;BME280;25687;49.976;8.240;2022-08-03T09:24:32;100098.59;;;43.30;14.81
804;BME280;25687;49.976;8.240;2022-08-03T09:26:57;100098.28;;;41.82;16.30
804;BME280;25687;49.976;8.240;2022-08-03T09:29:23;100097.91;;;43.11;15.21
804;BME280;25687;49.976;8.240;2022-08-03T09:31:59;100095.16;;;43.16;15.28
804;BME280;25687;49.976;8.240;2022-08-03T09:34:25;100101.09;;;44.23;14.68
804;BME280;25687;49.976;8.240;2022-08-03T09:36:53;100098.06;;;42.31;14.76
804;BME280;25687;49.976;8.240;2022-08-03T09:39:20;100096.91;;;42.51;14.85
804;BME280;25687;49.976;8.240;2022-08-03T09:41:48;100095.16;;;43.16;14.75
804;BME280;25687;49.976;8.240;2022-08-03T09:44:14;100103.78;;;44.86;13.54
804;BME280;25687;49.976;8.240;2022-08-03T09:46:50;100102.69;;;46.18;12.56
804;BME280;25687;49.976;8.240;2022-08-03T09:49:17;100092.91;;;44.37;13.69
804;BME280;25687;49.976;8.240;2022-08-03T09:51:44;100088.09;;;41.17;16.60
804;BME280;25687;49.976;8.240;2022-08-03T09:54:10;100079.56;;;38.61;17.93
804;BME280;25687;49.976;8.240;2022-08-03T09:56:38;100084.09;;;39.57;17.77
804;BME280;25687;49.976;8.240;2022-08-03T09:59:04;100082.59;;;41.65;16.36
804;BME280;25687;49.976;8.240;2022-08-03T10:01:33;100084.50;;;42.17;15.24
804;BME280;25687;49.976;8.240;2022-08-03T10:03:59;100076.38;;;41.26;16.07
804;BME280;25687;49.976;8.240;2022-08-03T10:06:24;100089.53;;;41.09;15.66
804;BME280;25687;49.976;8.240;2022-08-03T10:09:07;100071.06;;;39.74;17.27
804;BME280;25687;49.976;8.240;2022-08-03T10:11:33;100073.06;;;40.32;16.54
804;BME280;25687;49.976;8.240;2022-08-03T10:14:04;100065.72;;;37.33;19.00
804;BME280;25687;49.976;8.240;2022-08-03T10:16:38;100064.34;;;40.11;17.76
804;BME280;25687;49.976;8.240;2022-08-03T10:19:06;100063.13;;;41.49;16.06
804;BME280;25687;49.976;8.240;2022-08-03T10:21:34;100062.06;;;43.05;14.65
804;BME280;25687;49.976;8.240;2022-08-03T10:24:06;100062.88;;;44.33;13.09
804;BME280;25687;49.976;8.240;2022-08-03T10:26:34;100060.00;;;41.94;14.88
804;BME280;25687;49.976;8.240;2022-08-03T10:29:03;100050.44;;;43.18;14.02
804;BME280;25687;49.976;8.240;2022-08-03T10:31:36;100054.53;;;40.26;16.43
804;BME280;25687;49.976;8.240;2022-08-03T10:34:07;100031.25;;;37.99;17.43
804;BME280;25687;49.976;8.240;2022-08-03T10:36:37;100032.47;;;38.84;17.11
804;BME280;25687;49.976;8.240;2022-08-03T10:39:05;100031.00;;;38.16;18.46
804;BME280;25687;49.976;8.240;2022-08-03T10:41:33;100041.84;;;40.26;16.16
804;BME280;25687;49.976;8.240;2022-08-03T10:44:12;100035.59;;;41.66;15.71
804;BME280;25687;49.976;8.240;2022-08-03T10:46:41;100031.69;;;43.45;14.28
804;BME280;25687;49.976;8.240;2022-08-03T10:49:08;100034.03;;;42.73;15.79
804;BME280;25687;49.976;8.240;2022-08-03T10:51:36;100026.50;;;41.43;15.16
804;BME280;25687;49.976;8.240;2022-08-03T10:54:02;100017.94;;;41.17;16.17
804;BME280;25687;49.976;8.240;2022-08-03T10:59:15;100009.66;;;35.65;20.18
804;BME280;25687;49.976;8.240;2022-08-03T11:01:51;100004.53;;;34.53;22.16
804;BME280;25687;49.976;8.240;2022-08-03T11:04:21;99998.41;;;34.35;22.13
804;BME280;25687;49.976;8.240;2022-08-03T11:09:41;99991.91;;;32.15;24.54
804;BME280;25687;49.976;8.240;2022-08-03T11:12:25;99992.88;;;32.57;25.18
804;BME280;25687;49.976;8.240;2022-08-03T11:14:52;99976.59;;;33.06;24.63
804;BME280;25687;49.976;8.240;2022-08-03T11:17:17;99987.41;;;32.63;25.04
804;BME280;25687;49.976;8.240;2022-08-03T11:19:48;99987.19;;;32.77;25.42
804;BME280;25687;49.976;8.240;2022-08-03T11:22:14;99982.91;;;32.76;24.52
804;BME280;25687;49.976;8.240;2022-08-03T11:27:20;99974.81;;;32.82;25.19
804;BME280;25687;49.976;8.240;2022-08-03T11:40:52;99980.25;;;32.76;24.65
804;BME280;25687;49.976;8.240;2022-08-03T11:46:00;99976.19;;;33.38;25.15
804;BME280;25687;49.976;8.240;2022-08-03T11:48:31;99970.72;;;33.44;24.03
804;BME280;25687;49.976;8.240;2022-08-03T11:50:59;99971.66;;;33.38;23.68
804;BME280;25687;49.976;8.240;2022-08-03T11:53:24;99968.94;;;33.09;23.86
804;BME280;25687;49.976;8.240;2022-08-03T11:55:49;99969.34;;;33.01;23.76
804;BME280;25687;49.976;8.240;2022-08-03T11:58:21;99965.44;;;33.21;24.61
804;BME280;25687;49.976;8.240;2022-08-03T12:00:48;99959.19;;;33.15;24.14
804;BME280;25687;49.976;8.240;2022-08-03T12:03:16;99965.66;;;33.19;25.30
804;BME280;25687;49.976;8.240;2022-08-03T12:05:49;99958.53;;;33.08;25.02
804;BME280;25687;49.976;8.240;2022-08-03T12:08:17;99963.94;;;33.13;25.15
804;BME280;25687;49.976;8.240;2022-08-03T12:10:49;99957.91;;;32.77;24.83
804;BME280;25687;49.976;8.240;2022-08-03T12:13:16;99961.06;;;32.50;24.53
804;BME280;25687;49.976;8.240;2022-08-03T12:15:42;99956.38;;;32.57;24.90
804;BME280;25687;49.976;8.240;2022-08-03T12:18:15;99953.63;;;32.52;25.57
804;BME280;25687;49.976;8.240;2022-08-03T12:20:42;99958.44;;;32.08;25.84
804;BME280;25687;49.976;8.240;2022-08-03T12:23:08;99950.25;;;32.09;26.17
804;BME280;25687;49.976;8.240;2022-08-03T12:25:36;99953.53;;;32.23;25.69
804;BME280;25687;49.976;8.240;2022-08-03T12:28:10;99952.25;;;32.26;25.83
804;BME280;25687;49.976;8.240;2022-08-03T12:30:38;99956.06;;;32.30;25.55
804;BME280;25687;49.976;8.240;2022-08-03T12:33:12;99944.75;;;32.23;25.21
804;BME280;25687;49.976;8.240;2022-08-03T12:35:37;99941.25;;;32.34;24.95
804;BME280;25687;49.976;8.240;2022-08-03T12:38:03;99935.34;;;32.32;24.81
804;BME280;25687;49.976;8.240;2022-08-03T12:40:28;99938.34;;;32.24;25.49
804;BME280;25687;49.976;8.240;2022-08-03T12:42:54;99939.84;;;32.55;25.82
804;BME280;25687;49.976;8.240;2022-08-03T12:45:29;99935.81;;;32.76;24.68
804;BME280;25687;49.976;8.240;2022-08-03T12:47:59;99940.47;;;33.10;25.23
804;BME280;25687;49.976;8.240;2022-08-03T12:50:31;99936.44;;;33.36;24.64
804;BME280;25687;49.976;8.240;2022-08-03T12:52:57;99931.16;;;33.53;24.65
804;BME280;25687;49.976;8.240;2022-08-03T12:55:24;99935.19;;;33.56;24.17
804;BME280;25687;49.976;8.240;2022-08-03T12:57:58;99927.97;;;33.56;24.16
804;BME280;25687;49.976;8.240;2022-08-03T13:00:24;99929.97;;;33.78;24.17
804;BME280;25687;49.976;8.240;2022-08-03T13:03:03;99929.56;;;33.86;23.99
804;BME280;25687;49.976;8.240;2022-08-03T13:05:30;99928.84;;;33.91;23.49
804;BME280;25687;49.976;8.240;2022-08-03T13:07:55;99929.41;;;33.93;23.88
804;BME280;25687;49.976;8.240;2022-08-03T13:10:31;99923.84;;;33.94;24.12
804;BME280;25687;49.976;8.240;2022-08-03T13:12:58;99924.38;;;33.79;23.96
804;BME280;25687;49.976;8.240;2022-08-03T13:15:25;99918.72;;;33.76;23.84
804;BME280;25687;49.976;8.240;2022-08-03T13:17:53;99921.13;;;33.60;23.87
804;BME280;25687;49.976;8.240;2022-08-03T13:20:20;99923.31;;;33.81;24.48
804;BME280;25687;49.976;8.240;2022-08-03T13:22:46;99921.63;;;34.08;23.88
804;BME280;25687;49.976;8.240;2022-08-03T13:25:13;99916.75;;;33.71;24.17
804;BME280;25687;49.976;8.240;2022-08-03T13:27:38;99912.00;;;33.56;24.36
804;BME280;25687;49.976;8.240;2022-08-03T13:30:05;99913.22;;;33.66;24.07
804;BME280;25687;49.976;8.240;2022-08-03T13:32:31;99910.34;;;33.84;24.85
804;BME280;25687;49.976;8.240;2022-08-03T13:34:57;99913.31;;;33.71;24.48
804;BME280;25687;49.976;8.240;2022-08-03T13:37:22;99915.28;;;33.46;23.18
804;BME280;25687;49.976;8.240;2022-08-03T13:39:47;99909.06;;;33.41;23.88
804;BME280;25687;49.976;8.240;2022-08-03T13:42:13;99901.50;;;33.67;24.31
804;BME280;25687;49.976;8.240;2022-08-03T13:44:38;99902.84;;;33.52;23.39
804;BME280;25687;49.976;8.240;2022-08-03T13:47:04;99895.19;;;33.56;23.79
804;BME280;25687;49.976;8.240;2022-08-03T13:49:29;99902.00;;;33.81;24.57